Time;durP1;ratioP1;P1;durP2;ratioP2;P2;SDS_P1;SDS_P2;PMS_P1;PMS_P2;Temp;Humidity;BMP_temperature;BMP_pressure;BME280_temperature;BME280_humidity;BME280_pressure;Samples;Min_cycle;Max_cycle;Signal;HPM_P1;HPM_P2
2022/03/05 00:00:20;;;;;;;15.25;10.98;;;;;;;-5.70;94.10;92996.34;2122825;27;20030;-79
2022/03/05 00:01:21;;;;;;;19.55;11.55;;;;;;;-5.57;91.29;92991.97;2106465;28;20473;-80
2022/03/05 00:02:22;;;;;;;16.52;10.70;;;;;;;-5.53;92.30;92987.66;2114784;28;20139;-78
2022/03/05 00:03:24;;;;;;;18.83;10.93;;;;;;;-5.51;92.09;92993.28;2106892;28;20020;-80
2022/03/05 00:04:25;;;;;;;18.67;11.68;;;;;;;-5.57;92.28;92987.50;2114982;28;20103;-78
2022/03/05 00:05:26;;;;;;;17.10;11.10;;;;;;;-5.58;93.35;92982.59;2114766;28;20133;-81
2022/03/05 00:06:27;;;;;;;18.10;11.50;;;;;;;-5.60;93.45;92989.97;2098164;28;20424;-80
2022/03/05 00:07:28;;;;;;;18.92;10.70;;;;;;;-5.72;92.74;92982.84;2106041;28;20023;-80
2022/03/05 00:08:29;;;;;;;15.48;11.00;;;;;;;-5.63;91.99;92988.75;2101222;28;20098;-78
2022/03/05 00:09:30;;;;;;;19.90;12.02;;;;;;;-5.82;94.33;92985.84;2106368;28;20103;-81
2022/03/05 00:10:31;;;;;;;18.02;11.27;;;;;;;-5.85;93.89;92984.63;2098061;28;20083;-80
2022/03/05 00:11:32;;;;;;;18.85;11.70;;;;;;;-5.80;94.25;92980.31;2106081;28;20047;-79
2022/03/05 00:12:33;;;;;;;19.45;11.80;;;;;;;-5.77;94.57;92985.66;2105898;28;20052;-80
2022/03/05 00:13:36;;;;;;;21.92;12.30;;;;;;;-5.76;94.57;92989.00;2097955;28;20051;-80
2022/03/05 00:14:36;;;;;;;17.73;11.30;;;;;;;-5.88;94.89;92990.47;2098356;28;20020;-79
2022/03/05 00:15:38;;;;;;;21.50;12.57;;;;;;;-5.88;96.23;92985.28;2106376;28;20110;-83
2022/03/05 00:16:39;;;;;;;18.48;12.02;;;;;;;-5.82;94.60;92985.84;2114794;28;20026;-80
2022/03/05 00:17:40;;;;;;;21.23;11.80;;;;;;;-5.71;92.86;92981.78;2114824;28;20027;-80
2022/03/05 00:18:41;;;;;;;19.83;12.05;;;;;;;-5.65;92.45;92977.16;2114607;28;20043;-80
2022/03/05 00:19:41;;;;;;;18.65;11.52;;;;;;;-5.70;92.30;92991.13;2097727;28;20131;-82
2022/03/05 00:20:44;;;;;;;15.85;10.40;;;;;;;-5.79;93.46;92987.81;2106302;28;20633;-78
2022/03/05 00:21:46;;;;;;;19.17;10.82;;;;;;;-5.90;94.56;92986.66;2106405;28;20020;-79
2022/03/05 00:22:47;;;;;;;19.45;12.27;;;;;;;-5.82;94.93;92985.84;2106326;28;20020;-80
2022/03/05 00:23:48;;;;;;;17.75;11.15;;;;;;;-5.84;94.35;92990.59;2106102;28;20471;-79
2022/03/05 00:24:49;;;;;;;17.88;11.60;;;;;;;-5.82;93.46;92988.44;2105885;28;20457;-79
2022/03/05 00:25:50;;;;;;;17.25;11.07;;;;;;;-5.76;93.53;92991.63;2106196;28;20069;-80
2022/03/05 00:26:51;;;;;;;19.00;11.18;;;;;;;-5.92;94.30;92981.81;2097872;28;20085;-81
2022/03/05 00:27:54;;;;;;;17.13;11.45;;;;;;;-5.91;94.40;92990.34;2097810;28;20031;-79
2022/03/05 00:28:55;;;;;;;18.70;11.65;;;;;;;-5.82;94.42;92986.59;2098665;28;20056;-78
2022/03/05 00:29:57;;;;;;;19.08;11.07;;;;;;;-5.97;96.18;92981.19;2097887;28;20024;-82
2022/03/05 00:31:00;;;;;;;18.20;11.15;;;;;;;-6.04;97.58;92988.75;2114951;28;20028;-79
2022/03/05 00:32:01;;;;;;;19.88;11.05;;;;;;;-5.96;96.41;92983.50;2114366;28;20020;-79
2022/03/05 00:33:03;;;;;;;17.52;11.30;;;;;;;-6.03;97.51;92988.44;2106185;28;20051;-79
2022/03/05 00:34:03;;;;;;;18.83;11.63;;;;;;;-6.01;96.86;92980.31;2106271;28;20028;-78
2022/03/05 00:35:06;;;;;;;17.42;11.60;;;;;;;-6.02;95.61;92984.00;2112189;28;20446;-80
2022/03/05 00:36:07;;;;;;;18.33;12.05;;;;;;;-6.16;97.18;92982.38;2122624;27;20027;-79
2022/03/05 00:37:08;;;;;;;20.30;11.80;;;;;;;-6.16;96.95;92992.03;2114395;27;20027;-79
2022/03/05 00:38:11;;;;;;;15.88;10.85;;;;;;;-5.93;95.88;92984.69;2106145;28;20387;-80
2022/03/05 00:39:12;;;;;;;18.83;11.38;;;;;;;-6.17;98.47;92987.91;2098086;28;20029;-80
2022/03/05 00:40:13;;;;;;;20.23;10.85;;;;;;;-6.09;97.86;92982.66;2114615;27;20526;-79
2022/03/05 00:41:14;;;;;;;21.85;10.93;;;;;;;-5.96;96.35;92982.75;2114284;28;20023;-80
2022/03/05 00:42:15;;;;;;;18.98;11.13;;;;;;;-6.09;97.91;92989.72;2106115;28;20016;-80
2022/03/05 00:43:16;;;;;;;17.55;11.70;;;;;;;-6.02;97.10;92984.75;2114427;28;20023;-79
2022/03/05 00:44:17;;;;;;;17.30;10.98;;;;;;;-6.15;98.40;92983.91;2114396;28;20023;-78
2022/03/05 00:45:18;;;;;;;20.02;11.63;;;;;;;-6.00;96.68;92989.66;2097757;28;20107;-80
2022/03/05 00:46:19;;;;;;;16.60;11.45;;;;;;;-6.19;96.70;92987.44;2097584;28;20074;-79
2022/03/05 00:47:20;;;;;;;21.27;11.18;;;;;;;-6.07;95.98;92984.94;2097753;28;20449;-79
2022/03/05 00:48:21;;;;;;;20.63;11.43;;;;;;;-6.17;95.09;92991.28;2097266;28;20016;-78
2022/03/05 00:49:22;;;;;;;24.33;12.48;;;;;;;-6.15;95.72;92990.94;2097633;28;20028;-78
2022/03/05 00:50:23;;;;;;;17.42;10.85;;;;;;;-6.06;96.04;92985.69;2097712;28;20028;-78
2022/03/05 00:51:25;;;;;;;16.45;10.77;;;;;;;-6.18;97.74;92994.19;2089088;28;20016;-77
2022/03/05 00:52:26;;;;;;;17.55;11.10;;;;;;;-6.04;97.69;92992.13;2097390;28;20024;-79
2022/03/05 00:53:27;;;;;;;19.17;11.18;;;;;;;-6.10;97.40;92991.56;2106232;27;20484;-77
2022/03/05 00:54:28;;;;;;;19.10;11.68;;;;;;;-6.24;98.18;92988.38;2114508;28;20042;-81
2022/03/05 00:55:29;;;;;;;15.90;10.23;;;;;;;-6.13;97.11;92994.78;2097697;28;20031;-78
2022/03/05 00:56:30;;;;;;;15.05;10.52;;;;;;;-6.13;96.65;92994.00;2097470;28;20027;-78
2022/03/05 00:57:31;;;;;;;17.92;10.70;;;;;;;-5.98;95.40;92997.91;2097447;28;20773;-81
2022/03/05 00:58:32;;;;;;;15.95;11.02;;;;;;;-6.09;96.16;92995.66;2114433;28;20095;-78
2022/03/05 00:59:33;;;;;;;16.98;11.25;;;;;;;-6.08;95.79;92993.81;2114275;28;20491;-79
2022/03/05 01:00:34;;;;;;;15.98;10.98;;;;;;;-6.12;96.57;92990.31;2097282;28;20025;-80
2022/03/05 01:01:35;;;;;;;16.85;10.93;;;;;;;-6.13;97.36;93001.81;2114379;28;20475;-79
2022/03/05 01:02:36;;;;;;;16.58;10.35;;;;;;;-6.12;97.96;92991.09;2123006;27;20016;-81
2022/03/05 01:03:37;;;;;;;17.55;11.85;;;;;;;-6.17;97.06;92993.88;2105884;28;20049;-81
2022/03/05 01:04:38;;;;;;;18.63;11.02;;;;;;;-6.21;99.32;92987.00;2097235;28;20104;-77
2022/03/05 01:05:39;;;;;;;19.48;10.88;;;;;;;-6.21;99.05;93002.63;2097723;28;20028;-81
2022/03/05 01:06:40;;;;;;;19.33;11.55;;;;;;;-6.27;99.03;92993.47;2116830;27;20023;-82
2022/03/05 01:07:41;;;;;;;18.83;11.20;;;;;;;-6.20;98.53;92991.13;2105699;28;20488;-80
2022/03/05 01:08:42;;;;;;;17.10;10.30;;;;;;;-6.22;97.30;92990.69;2105856;28;20023;-81
2022/03/05 01:09:43;;;;;;;18.30;10.63;;;;;;;-6.33;99.01;92992.88;2105958;28;20028;-81
2022/03/05 01:10:45;;;;;;;19.55;11.10;;;;;;;-6.33;99.18;92985.06;2105912;28;20028;-78
2022/03/05 01:11:46;;;;;;;17.40;10.65;;;;;;;-6.52;100.00;92993.25;2100665;28;20036;-80
2022/03/05 01:12:47;;;;;;;17.42;11.13;;;;;;;-6.51;99.36;92988.81;2101700;28;20515;-80
2022/03/05 01:13:47;;;;;;;15.38;10.60;;;;;;;-6.35;97.75;92989.84;2105756;28;20016;-79
2022/03/05 01:14:49;;;;;;;17.35;11.23;;;;;;;-6.35;97.70;92987.22;2105570;28;20093;-81
2022/03/05 01:15:50;;;;;;;14.77;10.35;;;;;;;-6.34;96.49;92986.16;2097742;28;20450;-82
2022/03/05 01:16:51;;;;;;;18.52;10.50;;;;;;;-6.29;97.81;92988.56;2097352;28;20182;-83
2022/03/05 01:17:52;;;;;;;17.60;10.82;;;;;;;-6.25;97.24;92983.50;2097266;28;20062;-80
2022/03/05 01:18:53;;;;;;;16.77;10.52;;;;;;;-6.22;97.33;92977.69;2114432;27;20072;-80
2022/03/05 01:19:54;;;;;;;17.58;10.93;;;;;;;-6.25;97.26;92983.50;2114099;28;20027;-81
2022/03/05 01:20:55;;;;;;;18.05;11.18;;;;;;;-6.34;97.33;92979.09;2105781;28;20016;-80
2022/03/05 01:21:56;;;;;;;18.88;11.93;;;;;;;-6.41;97.15;92983.25;2105591;28;20134;-81
2022/03/05 01:22:57;;;;;;;15.77;10.68;;;;;;;-6.41;97.86;92975.47;2105769;28;20032;-79
2022/03/05 01:23:58;;;;;;;17.95;10.13;;;;;;;-6.30;97.00;92981.84;2105195;28;20270;-78
2022/03/05 01:24:58;;;;;;;17.48;10.82;;;;;;;-6.28;97.79;92973.72;2097249;28;20165;-80
2022/03/05 01:25:59;;;;;;;16.88;11.07;;;;;;;-6.36;98.64;92978.66;2097291;28;20025;-83
2022/03/05 01:27:00;;;;;;;15.35;10.10;;;;;;;-6.33;99.21;92972.06;2105730;28;20028;-79
2022/03/05 01:28:02;;;;;;;18.02;11.20;;;;;;;-6.41;99.80;92972.88;2105246;28;20038;-79
2022/03/05 01:29:03;;;;;;;16.70;11.10;;;;;;;-6.46;100.00;92981.59;2105870;28;20051;-78
2022/03/05 01:30:04;;;;;;;16.85;11.05;;;;;;;-6.44;99.86;92968.31;2114219;28;20019;-81
2022/03/05 01:31:06;;;;;;;16.50;10.25;;;;;;;-6.39;98.94;92971.50;2114127;28;20388;-79
2022/03/05 01:32:07;;;;;;;16.02;10.57;;;;;;;-6.42;98.56;92973.94;2113911;28;20325;-82
2022/03/05 01:33:09;;;;;;;14.82;10.23;;;;;;;-6.34;98.02;92973.16;2105827;28;20491;-80
2022/03/05 01:34:10;;;;;;;17.10;11.00;;;;;;;-6.46;98.02;92978.25;2097453;28;20073;-78
2022/03/05 01:35:10;;;;;;;18.70;10.65;;;;;;;-6.40;97.52;92975.16;2105574;28;20456;-80
2022/03/05 01:36:11;;;;;;;17.50;10.45;;;;;;;-6.41;97.43;92970.25;2096865;28;20152;-80
2022/03/05 01:37:12;;;;;;;14.23;10.15;;;;;;;-6.31;98.04;92976.97;2113672;28;20035;-81
2022/03/05 01:38:15;;;;;;;22.45;10.00;;;;;;;-6.38;97.86;92975.59;2113993;28;20495;-81
2022/03/05 01:39:16;;;;;;;16.92;10.85;;;;;;;-6.47;98.85;92964.47;2105986;28;20031;-80
2022/03/05 01:40:18;;;;;;;16.77;10.65;;;;;;;-6.43;99.45;92972.44;2097413;28;20492;-79
2022/03/05 01:41:19;;;;;;;19.80;11.00;;;;;;;-6.54;100.00;92968.63;2097341;28;20046;-81
2022/03/05 01:42:20;;;;;;;19.30;10.80;;;;;;;-6.47;100.00;92968.94;2097275;28;20378;-80
2022/03/05 01:43:21;;;;;;;17.05;10.00;;;;;;;-6.50;99.29;92978.09;2114303;27;20364;-78
2022/03/05 01:44:23;;;;;;;20.00;10.65;;;;;;;-6.68;100.00;92980.00;2113997;28;20073;-80
2022/03/05 01:45:25;;;;;;;18.73;11.02;;;;;;;-6.65;100.00;92976.03;2105706;28;20028;-78
2022/03/05 01:46:37;;;;;;;18.38;11.07;;;;;;;-6.63;100.00;92976.47;2097525;28;20017;-81
2022/03/05 01:47:39;;;;;;;15.32;10.25;;;;;;;-6.56;99.29;92976.00;2100144;28;20017;-82
2022/03/05 01:48:40;;;;;;;16.15;9.93;;;;;;;-6.49;98.97;92973.69;2105329;28;20361;-79
2022/03/05 01:49:42;;;;;;;18.48;10.60;;;;;;;-6.48;98.82;92972.59;2105486;28;20024;-81
2022/03/05 01:50:43;;;;;;;18.58;11.27;;;;;;;-6.44;99.00;92970.91;2106753;28;20016;-80
2022/03/05 01:51:44;;;;;;;18.77;10.85;;;;;;;-6.52;99.18;92971.72;2105386;28;20107;-82
2022/03/05 01:52:45;;;;;;;16.42;11.05;;;;;;;-6.61;99.36;92963.94;2100513;28;20361;-81
2022/03/05 01:53:46;;;;;;;14.95;10.05;;;;;;;-6.48;99.23;92970.00;2114040;28;20022;-79
2022/03/05 01:54:47;;;;;;;18.05;10.65;;;;;;;-6.49;98.96;92964.06;2113728;28;20024;-82
2022/03/05 01:55:48;;;;;;;16.27;10.45;;;;;;;-6.51;98.61;92973.22;2097229;28;20025;-81
2022/03/05 01:56:50;;;;;;;14.60;10.00;;;;;;;-6.63;100.00;92969.47;2096844;28;20016;-81
2022/03/05 01:57:52;;;;;;;15.68;9.90;;;;;;;-6.66;100.00;92970.06;2097428;28;20473;-78
2022/03/05 01:58:53;;;;;;;18.63;10.63;;;;;;;-6.65;100.00;92966.41;2113959;28;20023;-80
2022/03/05 01:59:54;;;;;;;16.45;10.23;;;;;;;-6.60;100.00;92957.66;2096595;28;20075;-78
2022/03/05 02:00:55;;;;;;;15.30;10.43;;;;;;;-6.71;100.00;92962.44;2097209;28;20115;-81
2022/03/05 02:01:56;;;;;;;16.42;9.90;;;;;;;-6.77;100.00;92963.69;2110193;28;20524;-82
2022/03/05 02:02:57;;;;;;;17.88;10.35;;;;;;;-6.86;100.00;92958.50;2113432;28;20510;-79
2022/03/05 02:04:00;;;;;;;17.42;10.30;;;;;;;-6.66;100.00;92957.06;2122385;27;20038;-79
2022/03/05 02:05:01;;;;;;;17.98;10.45;;;;;;;-6.65;100.00;92965.63;2113831;28;20030;-78
2022/03/05 02:06:02;;;;;;;15.77;10.40;;;;;;;-6.63;100.00;92953.06;2105472;28;20415;-82
2022/03/05 02:07:03;;;;;;;16.20;10.80;;;;;;;-6.65;100.00;92957.84;2105101;28;20490;-81
2022/03/05 02:08:05;;;;;;;17.48;10.35;;;;;;;-6.68;100.00;92966.25;2113636;28;20027;-78
2022/03/05 02:09:06;;;;;;;15.18;8.77;;;;;;;-6.52;99.60;92953.50;2097134;28;20020;-79
2022/03/05 02:11:44;;;;;;;14.70;8.80;;;;;;;-6.63;100.00;92955.69;2138862;27;20483;-80
2022/03/05 02:12:44;;;;;;;16.30;9.15;;;;;;;-6.59;100.00;92957.34;2128865;27;20521;-80
2022/03/05 02:13:46;;;;;;;18.73;9.73;;;;;;;-6.54;100.00;92960.84;2120716;28;20049;-81
2022/03/05 02:14:46;;;;;;;14.05;9.82;;;;;;;-6.72;100.00;92963.50;2121021;28;20031;-80
2022/03/05 02:15:56;;;;;;;15.43;9.98;;;;;;;-6.77;100.00;92957.72;2120917;28;20023;-80
2022/03/05 02:16:57;;;;;;;16.58;10.02;;;;;;;-6.73;100.00;92958.63;2113747;28;20034;-81
2022/03/05 02:17:58;;;;;;;13.70;10.00;;;;;;;-6.77;100.00;92955.88;2104062;28;20109;-78
2022/03/05 02:18:58;;;;;;;16.23;10.13;;;;;;;-6.82;100.00;92963.84;2095815;28;20032;-79
2022/03/05 02:20:00;;;;;;;17.02;9.77;;;;;;;-6.80;100.00;92956.53;2101175;28;20484;-79
2022/03/05 02:21:01;;;;;;;12.82;9.05;;;;;;;-6.83;100.00;92948.59;2109808;27;20042;-80
2022/03/05 02:22:03;;;;;;;16.65;9.38;;;;;;;-6.87;100.00;92949.19;2114850;28;20533;-81
2022/03/05 02:23:04;;;;;;;17.25;9.98;;;;;;;-6.90;100.00;92951.66;2109066;28;20031;-78
2022/03/05 02:24:05;;;;;;;15.93;10.30;;;;;;;-6.77;100.00;92944.72;2111149;28;20055;-80
2022/03/05 02:25:07;;;;;;;15.27;9.45;;;;;;;-6.81;100.00;92954.22;2110121;28;20062;-81
2022/03/05 02:26:09;;;;;;;14.57;9.35;;;;;;;-6.82;100.00;92953.47;2104118;28;20448;-78
2022/03/05 02:27:10;;;;;;;16.33;9.80;;;;;;;-6.79;100.00;92950.25;2112395;27;20032;-81
2022/03/05 02:28:11;;;;;;;19.10;10.15;;;;;;;-6.74;100.00;92949.31;2112123;28;20039;-81
2022/03/05 02:29:12;;;;;;;16.80;10.25;;;;;;;-6.64;100.00;92948.97;2112152;27;20361;-79
2022/03/05 02:30:13;;;;;;;14.80;9.02;;;;;;;-6.73;100.00;92946.41;2120592;27;20064;-80
2022/03/05 02:31:15;;;;;;;17.75;9.38;;;;;;;-6.74;100.00;92944.13;2127988;27;20081;-80
2022/03/05 02:32:16;;;;;;;15.88;9.60;;;;;;;-6.89;100.00;92955.75;2120281;28;20035;-78
2022/03/05 02:33:17;;;;;;;12.98;8.98;;;;;;;-6.97;100.00;92946.19;2111813;27;20034;-79
2022/03/05 02:34:18;;;;;;;15.05;9.55;;;;;;;-6.89;100.00;92947.97;2112191;28;20028;-80
2022/03/05 02:35:20;;;;;;;14.55;9.98;;;;;;;-7.01;100.00;92943.44;2120520;27;20027;-81
2022/03/05 02:36:22;;;;;;;13.68;9.43;;;;;;;-6.83;100.00;92940.78;2128514;27;20049;-78
2022/03/05 02:37:23;;;;;;;13.65;9.65;;;;;;;-6.68;100.00;92937.66;2119379;27;20051;-78
2022/03/05 02:38:24;;;;;;;14.20;9.27;;;;;;;-6.73;100.00;92930.81;2120727;27;20032;-78
2022/03/05 02:39:25;;;;;;;12.60;8.50;;;;;;;-6.80;100.00;92929.75;2125535;27;20175;-80
2022/03/05 02:40:26;;;;;;;13.55;9.00;;;;;;;-6.86;100.00;92942.91;2120449;27;20076;-79
2022/03/05 02:41:27;;;;;;;15.13;9.95;;;;;;;-6.95;100.00;92939.59;2119141;28;20024;-77
2022/03/05 02:42:28;;;;;;;12.50;8.48;;;;;;;-7.03;100.00;92935.19;2114811;27;20680;-81
2022/03/05 02:43:29;;;;;;;16.27;9.40;;;;;;;-6.90;100.00;92946.44;2111959;28;20031;-80
2022/03/05 02:44:30;;;;;;;13.35;9.18;;;;;;;-6.90;100.00;92936.81;2115799;27;20142;-77
2022/03/05 02:45:31;;;;;;;14.13;9.27;;;;;;;-6.83;100.00;92946.75;2120287;28;20799;-80
2022/03/05 02:46:34;;;;;;;13.98;9.18;;;;;;;-6.80;100.00;92946.13;2111749;28;20111;-78
2022/03/05 02:47:35;;;;;;;16.33;9.95;;;;;;;-6.63;97.45;92942.69;2111611;28;20028;-79
2022/03/05 02:48:36;;;;;;;13.82;9.02;;;;;;;-6.85;98.91;92948.88;2103341;28;20054;-80
2022/03/05 02:49:37;;;;;;;14.82;8.88;;;;;;;-6.67;98.87;92945.16;2113870;28;20032;-80
2022/03/05 02:50:39;;;;;;;16.20;10.02;;;;;;;-6.95;99.55;92936.22;2129019;27;20176;-78
2022/03/05 02:51:41;;;;;;;15.25;8.98;;;;;;;-6.91;100.00;92944.94;2120409;28;20031;-79
2022/03/05 02:52:42;;;;;;;14.10;9.15;;;;;;;-7.06;100.00;92941.00;2112517;27;20024;-81
2022/03/05 02:53:43;;;;;;;15.57;10.15;;;;;;;-6.98;100.00;92944.63;2112305;28;20027;-80
2022/03/05 02:54:44;;;;;;;13.90;8.57;;;;;;;-7.06;100.00;92942.84;2103828;28;20067;-80
2022/03/05 02:55:46;;;;;;;12.15;8.82;;;;;;;-7.03;100.00;92939.63;2103893;28;20081;-78
2022/03/05 02:56:47;;;;;;;13.02;8.82;;;;;;;-7.14;100.00;92942.56;2112421;27;20032;-79
2022/03/05 02:57:48;;;;;;;13.82;8.77;;;;;;;-7.18;100.00;92935.69;2120784;28;20034;-78
2022/03/05 02:58:49;;;;;;;17.10;9.32;;;;;;;-7.17;100.00;92932.78;2120772;28;20031;-78
2022/03/05 02:59:50;;;;;;;14.25;9.48;;;;;;;-7.21;100.00;92941.50;2120354;27;20031;-80
2022/03/05 03:00:51;;;;;;;15.20;9.10;;;;;;;-7.16;100.00;92936.13;2109959;28;20024;-79
2022/03/05 03:01:52;;;;;;;13.63;10.00;;;;;;;-7.02;100.00;92943.72;2112299;28;20460;-81
2022/03/05 03:02:53;;;;;;;13.30;8.60;;;;;;;-7.13;100.00;92940.72;2112254;28;20024;-77
2022/03/05 03:03:54;;;;;;;16.65;9.88;;;;;;;-7.00;100.00;92931.22;2095598;28;20094;-79
2022/03/05 03:04:55;;;;;;;17.08;9.65;;;;;;;-7.07;100.00;92933.50;2103872;28;20526;-80
2022/03/05 03:05:56;;;;;;;15.77;9.85;;;;;;;-7.17;100.00;92939.81;2112208;28;20131;-79
2022/03/05 03:06:57;;;;;;;16.60;9.55;;;;;;;-7.22;100.00;92932.94;2116707;28;20061;-79
2022/03/05 03:07:58;;;;;;;13.52;8.88;;;;;;;-7.09;100.00;92931.22;2112132;28;20031;-78
2022/03/05 03:08:59;;;;;;;15.13;9.57;;;;;;;-7.18;100.00;92928.66;2103857;28;20111;-80
2022/03/05 03:10:00;;;;;;;16.38;9.80;;;;;;;-7.24;100.00;92935.09;2103918;28;20468;-81
2022/03/05 03:11:01;;;;;;;15.40;10.07;;;;;;;-7.27;100.00;92935.72;2103711;28;20043;-80
2022/03/05 03:12:03;;;;;;;14.98;9.20;;;;;;;-7.24;100.00;92932.50;2111827;28;20111;-81
2022/03/05 03:13:04;;;;;;;14.68;9.57;;;;;;;-7.20;100.00;92936.00;2120663;28;20059;-80
2022/03/05 03:14:04;;;;;;;13.55;9.43;;;;;;;-7.28;100.00;92939.38;2111925;28;20032;-79
2022/03/05 03:15:08;;;;;;;15.65;9.88;;;;;;;-7.10;100.00;92937.50;2103779;28;20029;-80
2022/03/05 03:16:09;;;;;;;16.35;9.63;;;;;;;-7.10;100.00;92937.50;2104128;28;20021;-78
2022/03/05 03:17:10;;;;;;;13.52;9.13;;;;;;;-7.19;100.00;92942.72;2103831;28;20020;-80
2022/03/05 03:18:11;;;;;;;15.15;9.15;;;;;;;-7.13;100.00;92943.31;2103572;28;20032;-77
2022/03/05 03:19:12;;;;;;;15.75;9.90;;;;;;;-7.24;100.00;92942.88;2112027;28;20492;-79
2022/03/05 03:20:15;;;;;;;12.85;9.10;;;;;;;-7.35;100.00;92937.25;2096753;28;20079;-79
2022/03/05 03:21:17;;;;;;;16.83;9.80;;;;;;;-7.27;100.00;92938.31;2095871;28;20145;-79
2022/03/05 03:22:19;;;;;;;14.00;9.43;;;;;;;-7.29;100.00;92943.03;2111585;28;20034;-79
2022/03/05 03:23:19;;;;;;;14.85;9.38;;;;;;;-7.29;100.00;92940.44;2105899;28;20039;-79
2022/03/05 03:24:20;;;;;;;14.55;9.65;;;;;;;-7.18;100.00;92939.03;2089664;28;20481;-81
2022/03/05 03:25:22;;;;;;;14.98;9.68;;;;;;;-7.37;100.00;92934.22;2106434;28;20381;-78
2022/03/05 03:26:22;;;;;;;13.63;9.13;;;;;;;-7.46;100.00;92937.84;2106433;28;20114;-80
2022/03/05 03:27:23;;;;;;;15.68;9.30;;;;;;;-7.34;100.00;92932.81;2097968;28;20039;-79
2022/03/05 03:28:24;;;;;;;14.88;10.13;;;;;;;-7.40;100.00;92939.25;2094507;28;20036;-77
2022/03/05 03:29:25;;;;;;;14.30;9.25;;;;;;;-7.27;100.00;92932.34;2093582;28;20108;-80
2022/03/05 03:30:27;;;;;;;14.15;9.52;;;;;;;-7.44;100.00;92933.91;2093656;28;20043;-80
2022/03/05 03:31:28;;;;;;;18.77;9.65;;;;;;;-7.46;100.00;92936.06;2095725;28;20208;-81
2022/03/05 03:32:30;;;;;;;14.00;8.98;;;;;;;-7.43;100.00;92929.47;2104563;28;20032;-80
2022/03/05 03:33:31;;;;;;;14.32;9.85;;;;;;;-7.25;100.00;92943.94;2098122;28;20028;-80
2022/03/05 03:34:32;;;;;;;18.35;9.73;;;;;;;-7.32;100.00;92935.88;2106269;28;20028;-79
2022/03/05 03:35:33;;;;;;;15.35;9.15;;;;;;;-7.37;100.00;92939.41;2097983;28;20032;-78
2022/03/05 03:36:34;;;;;;;15.73;8.73;;;;;;;-7.37;100.00;92938.63;2089466;28;20123;-80
2022/03/05 03:37:35;;;;;;;15.45;9.35;;;;;;;-7.48;100.00;92935.59;2090794;28;20849;-78
2022/03/05 03:38:36;;;;;;;14.50;9.32;;;;;;;-7.49;100.00;92939.25;2087928;28;20100;-81
2022/03/05 03:39:37;;;;;;;15.55;9.82;;;;;;;-7.38;100.00;92937.09;2098101;28;20028;-79
2022/03/05 03:40:38;;;;;;;15.65;9.68;;;;;;;-7.47;100.00;92939.69;2106064;28;20508;-78
2022/03/05 03:41:39;;;;;;;14.10;9.77;;;;;;;-7.35;100.00;92941.66;2098193;28;20024;-78
2022/03/05 03:42:40;;;;;;;16.52;9.13;;;;;;;-7.42;100.00;92944.75;2098120;28;20450;-80
2022/03/05 03:43:41;;;;;;;14.63;9.02;;;;;;;-7.37;100.00;92939.41;2106537;28;20062;-80
2022/03/05 03:44:42;;;;;;;15.20;8.80;;;;;;;-7.28;100.00;92947.16;2098084;28;20070;-79
2022/03/05 03:45:43;;;;;;;17.85;9.45;;;;;;;-7.41;100.00;92942.91;2089725;28;20404;-79
2022/03/05 03:46:44;;;;;;;13.85;8.98;;;;;;;-7.38;100.00;92942.28;2097955;28;20028;-80
2022/03/05 03:47:48;;;;;;;14.02;8.43;;;;;;;-7.39;100.00;92933.72;2097797;28;20020;-80
2022/03/05 03:48:49;;;;;;;14.18;9.05;;;;;;;-7.48;100.00;92932.97;2106588;28;20077;-81
2022/03/05 03:49:50;;;;;;;12.45;8.43;;;;;;;-7.46;100.00;92940.47;2106428;28;20073;-79
2022/03/05 03:50:51;;;;;;;13.45;9.40;;;;;;;-7.33;100.00;92949.16;2089866;28;20025;-78
2022/03/05 03:51:52;;;;;;;14.65;8.60;;;;;;;-7.50;100.00;92942.94;2089486;28;20037;-81
2022/03/05 03:52:54;;;;;;;17.60;9.48;;;;;;;-7.46;100.00;92940.47;2097956;28;20035;-80
2022/03/05 03:53:55;;;;;;;13.40;9.63;;;;;;;-7.51;100.00;92943.22;2114679;28;20198;-79
2022/03/05 03:54:56;;;;;;;13.77;8.77;;;;;;;-7.61;100.00;92945.06;2106120;28;20039;-79
2022/03/05 03:55:57;;;;;;;15.20;8.63;;;;;;;-7.30;100.00;92943.34;2097970;28;20085;-80
2022/03/05 03:56:58;;;;;;;14.88;8.80;;;;;;;-7.45;100.00;92942.00;2089506;28;20029;-77
2022/03/05 03:58:00;;;;;;;11.77;8.40;;;;;;;-7.55;100.00;92947.50;2094083;28;20025;-79
2022/03/05 03:59:02;;;;;;;13.43;8.70;;;;;;;-7.65;100.00;92943.38;2088721;28;20029;-80
2022/03/05 04:00:05;;;;;;;10.82;8.35;;;;;;;-7.65;100.00;92948.56;2096953;28;20056;-79
2022/03/05 04:01:06;;;;;;;12.95;8.45;;;;;;;-7.52;100.00;92944.28;2106266;28;20056;-78
2022/03/05 04:02:07;;;;;;;16.17;9.15;;;;;;;-7.56;100.00;92948.56;2105670;28;20024;-78
2022/03/05 04:03:08;;;;;;;13.35;7.97;;;;;;;-7.55;100.00;92944.91;2105834;28;20043;-78
2022/03/05 04:04:09;;;;;;;15.43;8.45;;;;;;;-7.45;100.00;92949.78;2105752;28;20458;-78
2022/03/05 04:05:11;;;;;;;16.35;8.98;;;;;;;-7.43;100.00;92942.44;2097506;28;20041;-77
2022/03/05 04:06:12;;;;;;;13.25;8.13;;;;;;;-7.45;100.00;92947.94;2097833;28;20062;-79
2022/03/05 04:08:41;;;;;;;10.98;7.75;;;;;;;-7.55;100.00;92939.69;2094753;28;20076;-78
2022/03/05 04:09:42;;;;;;;13.65;8.18;;;;;;;-7.25;100.00;92938.75;2090437;28;20059;-79
2022/03/05 04:10:43;;;;;;;11.50;7.78;;;;;;;-7.44;100.00;92944.28;2089221;28;20385;-78
2022/03/05 04:11:44;;;;;;;10.38;8.02;;;;;;;-7.47;100.00;92938.94;2097134;28;20107;-80
2022/03/05 04:12:45;;;;;;;15.13;8.00;;;;;;;-7.52;100.00;92941.69;2104721;28;20061;-80
2022/03/05 04:13:47;;;;;;;12.98;8.18;;;;;;;-7.62;100.00;92942.78;2104646;28;20026;-80
2022/03/05 04:14:48;;;;;;;12.98;8.02;;;;;;;-7.56;100.00;92938.19;2104782;28;20028;-78
2022/03/05 04:15:49;;;;;;;11.63;8.23;;;;;;;-7.72;100.00;92940.50;2096465;28;20442;-78
2022/03/05 04:16:50;;;;;;;13.30;8.15;;;;;;;-7.73;100.00;92950.09;2096274;28;20107;-81
2022/03/05 04:17:51;;;;;;;11.52;8.00;;;;;;;-7.58;100.00;92951.47;2088530;28;20032;-80
2022/03/05 04:18:52;;;;;;;12.05;7.85;;;;;;;-7.61;100.00;92946.88;2085798;28;20088;-79
2022/03/05 04:19:53;;;;;;;11.65;7.97;;;;;;;-7.72;100.00;92945.69;2097005;28;20496;-78
2022/03/05 04:20:54;;;;;;;12.10;7.18;;;;;;;-7.64;100.00;92947.50;2101686;28;20107;-78
2022/03/05 04:21:55;;;;;;;11.77;6.90;;;;;;;-7.70;100.00;92946.13;2097413;28;20047;-81
2022/03/05 04:22:58;;;;;;;10.52;6.65;;;;;;;-7.67;100.00;92943.69;2097324;28;20036;-81
2022/03/05 04:23:59;;;;;;;9.52;6.78;;;;;;;-7.68;100.00;92949.97;2105264;28;20168;-78
2022/03/05 04:25:01;;;;;;;9.73;6.88;;;;;;;-7.61;100.00;92944.28;2097105;28;20446;-79
2022/03/05 04:26:02;;;;;;;11.00;7.10;;;;;;;-7.45;100.00;92937.56;2097586;28;20040;-78
2022/03/05 04:27:03;;;;;;;10.75;7.20;;;;;;;-7.49;100.00;92935.91;2089013;28;20052;-77
2022/03/05 04:28:05;;;;;;;12.40;6.97;;;;;;;-7.51;100.00;92940.63;2105549;28;20084;-78
2022/03/05 04:29:06;;;;;;;10.00;6.88;;;;;;;-7.51;100.00;92948.41;2114008;28;20028;-78
2022/03/05 04:30:08;;;;;;;10.38;6.75;;;;;;;-7.70;100.00;92946.13;2105686;28;20090;-80
2022/03/05 04:31:09;;;;;;;10.35;6.78;;;;;;;-7.74;100.00;92940.78;2105880;28;20397;-78
2022/03/05 04:32:10;;;;;;;10.25;6.70;;;;;;;-7.64;100.00;92947.50;2106153;28;20024;-77
2022/03/05 04:33:11;;;;;;;9.63;6.38;;;;;;;-7.65;100.00;92945.97;2105863;28;20531;-80
2022/03/05 04:34:12;;;;;;;11.18;7.18;;;;;;;-7.64;100.00;92942.31;2096997;28;20044;-78
2022/03/05 04:35:14;;;;;;;11.15;7.18;;;;;;;-7.67;100.00;92950.72;2088702;28;20052;-77
2022/03/05 04:36:15;;;;;;;10.68;6.70;;;;;;;-7.69;100.00;92951.00;2089104;28;20055;-77
2022/03/05 04:37:15;;;;;;;11.90;7.45;;;;;;;-7.71;100.00;92950.56;2084524;28;20463;-79
2022/03/05 04:38:16;;;;;;;9.63;6.75;;;;;;;-7.74;100.00;92948.56;2096907;28;20520;-77
2022/03/05 04:39:17;;;;;;;12.05;6.53;;;;;;;-7.68;100.00;92949.97;2097592;28;20090;-80
2022/03/05 04:40:19;;;;;;;12.07;6.95;;;;;;;-7.65;100.00;92948.56;2097399;28;20354;-80
2022/03/05 04:41:20;;;;;;;9.73;6.47;;;;;;;-7.81;100.00;92953.47;2097675;28;20036;-80
2022/03/05 04:42:21;;;;;;;9.88;6.75;;;;;;;-7.69;100.00;92952.84;2090776;28;20455;-78
2022/03/05 04:43:22;;;;;;;11.77;7.00;;;;;;;-7.60;100.00;92956.19;2094741;28;20024;-80
2022/03/05 04:44:23;;;;;;;8.75;6.28;;;;;;;-7.63;100.00;92962.00;2094790;28;20020;-80